메인 페이지
METAR-TAF:

METAR-TAF

공항 :

서 시우사구르 람굴람 국제공항

모리셔스, 모리셔스

위도: 20-26S, 경도: 057-40E, 고도: 55m

현재 날씨관측

예보는 47분 전, 05:00시(UTC)에 발표되었습니다.
남남동10kt
온도 21°C
습도 83%
기압 1023 hPa
시정 10km 이상
고도 1500ft 상공 구름 보통
시계 내 소나기

METAR: FIMP 230500Z 15010KT 9999 VCSH SCT015 21/18 Q1023

시각: 09:47 (05:47 UTC)

예보

예보는 1 시간 17분 전, 04:30시(UTC)에 발표되었습니다.
예보 대상 시간: 23일 06시부터 24일 12시까지 (UTC)
남동12kt, 순간 최대 풍속 25kt
시정 10km 이상
고도 1500ft 상공 구름 보통
일시적
23일 09시부터 24일 08시까지 (UTC)
남동18kt, 순간 최대 풍속 30kt
시정: 5000m
고도 800ft 상공 구름 조금
고도 1500ft 상공 구름 많음
고도 5000ft 상공 구름 많음
약한소나기
일시적
23일 15시부터 24일 00시까지 (UTC)
시정: 2000m
고도 5000ft 상공 구름 조금
고도 1300ft 상공 구름 조금, 타워링 적운.
고도 1400ft 상공 구름 많음
소나기
전환 중
24일 08시부터 24일 10시까지 (UTC)
동남동18kt, 순간 최대 풍속 30kt

TAF: FIMP 230430Z 2306/2412 14012G25KT 9999 SCT015 TEMPO 2309/2408 14018G30KT 5000 -SHRA FEW008 BKN015 BKN050 TEMPO 2315/2400 2000 SHRA FEW050 FEW013TCU BKN014 BECMG 2408/2410 11018G30KT

4,000개 이상의 공항 관측 자료 및 예보 (METAR 및 TAF 보고).

지도상에서 검색 가능한 기상관측소가 노란 점과 빨간 점으로 표시되어 있습니다.

기상관측소 명을 보려면 표시 위로 마우스를 이동하세요.

날씨 관측과 예보를 보려면 클릭하세요.

지도 변경 : 확대하려면 엑스 표시가 있는 녹색 버튼, 축소하려면 빼기 표시가 있는 녹색 버튼, 다음 페이지의 지도를 보려면 녹색 화살표를 클릭하세요.


METAR-TAF: